sensor_id;sensor_type;location;lat;lon;timestamp;P1;durP1;ratioP1;P2;durP2;ratioP2
3175;SDS011;1599;51.564;6.990;2022-12-18T00:01:18;84.70;;;37.30;;
3175;SDS011;1599;51.564;6.990;2022-12-18T00:03:46;82.00;;;39.97;;
3175;SDS011;1599;51.564;6.990;2022-12-18T00:06:12;78.67;;;39.50;;
3175;SDS011;1599;51.564;6.990;2022-12-18T00:08:40;70.77;;;35.50;;
3175;SDS011;1599;51.564;6.990;2022-12-18T00:11:07;84.17;;;37.00;;
3175;SDS011;1599;51.564;6.990;2022-12-18T00:13:36;84.13;;;38.23;;
3175;SDS011;1599;51.564;6.990;2022-12-18T00:16:03;87.80;;;40.30;;
3175;SDS011;1599;51.564;6.990;2022-12-18T00:18:31;91.10;;;42.33;;
3175;SDS011;1599;51.564;6.990;2022-12-18T00:21:04;80.23;;;35.93;;
3175;SDS011;1599;51.564;6.990;2022-12-18T00:23:33;92.27;;;40.50;;
3175;SDS011;1599;51.564;6.990;2022-12-18T00:26:07;78.87;;;39.30;;
3175;SDS011;1599;51.564;6.990;2022-12-18T00:28:55;75.10;;;37.10;;
3175;SDS011;1599;51.564;6.990;2022-12-18T00:31:25;81.80;;;38.60;;
3175;SDS011;1599;51.564;6.990;2022-12-18T00:33:53;71.23;;;38.07;;
3175;SDS011;1599;51.564;6.990;2022-12-18T00:36:21;84.90;;;36.37;;
3175;SDS011;1599;51.564;6.990;2022-12-18T00:38:53;78.97;;;38.17;;
3175;SDS011;1599;51.564;6.990;2022-12-18T00:41:20;85.20;;;38.77;;
3175;SDS011;1599;51.564;6.990;2022-12-18T00:44:05;80.10;;;39.03;;
3175;SDS011;1599;51.564;6.990;2022-12-18T00:46:33;76.90;;;37.30;;
3175;SDS011;1599;51.564;6.990;2022-12-18T00:48:59;81.70;;;37.27;;
3175;SDS011;1599;51.564;6.990;2022-12-18T00:51:25;72.33;;;36.00;;
3175;SDS011;1599;51.564;6.990;2022-12-18T00:53:51;67.40;;;34.40;;
3175;SDS011;1599;51.564;6.990;2022-12-18T00:56:23;79.37;;;38.30;;
3175;SDS011;1599;51.564;6.990;2022-12-18T00:58:49;71.20;;;35.30;;
3175;SDS011;1599;51.564;6.990;2022-12-18T01:01:15;65.27;;;34.80;;
3175;SDS011;1599;51.564;6.990;2022-12-18T01:03:42;76.73;;;35.67;;
3175;SDS011;1599;51.564;6.990;2022-12-18T01:06:10;81.37;;;39.13;;
3175;SDS011;1599;51.564;6.990;2022-12-18T01:08:38;73.60;;;36.37;;
3175;SDS011;1599;51.564;6.990;2022-12-18T01:11:08;78.13;;;36.80;;
3175;SDS011;1599;51.564;6.990;2022-12-18T01:13:43;85.10;;;36.90;;
3175;SDS011;1599;51.564;6.990;2022-12-18T01:16:12;65.67;;;36.57;;
3175;SDS011;1599;51.564;6.990;2022-12-18T01:18:40;77.97;;;35.80;;
3175;SDS011;1599;51.564;6.990;2022-12-18T01:21:10;67.30;;;37.30;;
3175;SDS011;1599;51.564;6.990;2022-12-18T01:23:39;72.13;;;35.20;;
3175;SDS011;1599;51.564;6.990;2022-12-18T01:26:09;66.37;;;35.00;;
3175;SDS011;1599;51.564;6.990;2022-12-18T01:28:39;78.33;;;36.93;;
3175;SDS011;1599;51.564;6.990;2022-12-18T01:31:09;79.77;;;37.77;;
3175;SDS011;1599;51.564;6.990;2022-12-18T01:33:36;76.60;;;37.60;;
3175;SDS011;1599;51.564;6.990;2022-12-18T01:36:02;72.00;;;37.17;;
3175;SDS011;1599;51.564;6.990;2022-12-18T01:38:28;80.87;;;36.87;;
3175;SDS011;1599;51.564;6.990;2022-12-18T01:40:57;68.83;;;34.90;;
3175;SDS011;1599;51.564;6.990;2022-12-18T01:46:19;68.67;;;34.40;;
3175;SDS011;1599;51.564;6.990;2022-12-18T01:48:52;74.00;;;33.30;;
3175;SDS011;1599;51.564;6.990;2022-12-18T01:51:22;73.70;;;33.87;;
3175;SDS011;1599;51.564;6.990;2022-12-18T01:53:49;64.50;;;33.67;;
3175;SDS011;1599;51.564;6.990;2022-12-18T01:56:16;66.07;;;33.80;;
3175;SDS011;1599;51.564;6.990;2022-12-18T01:58:56;69.60;;;35.00;;
3175;SDS011;1599;51.564;6.990;2022-12-18T02:01:28;71.60;;;31.43;;
3175;SDS011;1599;51.564;6.990;2022-12-18T02:03:55;66.30;;;31.70;;
3175;SDS011;1599;51.564;6.990;2022-12-18T02:06:39;76.93;;;34.90;;
3175;SDS011;1599;51.564;6.990;2022-12-18T02:09:09;72.90;;;33.57;;
3175;SDS011;1599;51.564;6.990;2022-12-18T02:23:19;65.93;;;28.73;;
3175;SDS011;1599;51.564;6.990;2022-12-18T02:28:41;70.83;;;31.90;;
3175;SDS011;1599;51.564;6.990;2022-12-18T02:31:35;74.23;;;32.97;;
3175;SDS011;1599;51.564;6.990;2022-12-18T02:34:07;71.90;;;32.07;;
3175;SDS011;1599;51.564;6.990;2022-12-18T02:36:34;65.77;;;30.27;;
3175;SDS011;1599;51.564;6.990;2022-12-18T02:39:03;67.93;;;31.20;;
3175;SDS011;1599;51.564;6.990;2022-12-18T02:41:32;71.63;;;32.77;;
3175;SDS011;1599;51.564;6.990;2022-12-18T02:44:00;61.27;;;30.97;;
3175;SDS011;1599;51.564;6.990;2022-12-18T02:46:32;64.43;;;30.77;;
3175;SDS011;1599;51.564;6.990;2022-12-18T02:49:12;71.00;;;30.97;;
3175;SDS011;1599;51.564;6.990;2022-12-18T02:51:53;64.60;;;27.60;;
3175;SDS011;1599;51.564;6.990;2022-12-18T02:57:45;65.70;;;28.80;;
3175;SDS011;1599;51.564;6.990;2022-12-18T03:00:42;61.13;;;30.67;;
3175;SDS011;1599;51.564;6.990;2022-12-18T03:05:50;56.17;;;29.67;;
3175;SDS011;1599;51.564;6.990;2022-12-18T03:08:30;65.30;;;32.00;;
3175;SDS011;1599;51.564;6.990;2022-12-18T03:11:09;56.07;;;28.40;;
3175;SDS011;1599;51.564;6.990;2022-12-18T03:13:39;57.43;;;28.40;;
3175;SDS011;1599;51.564;6.990;2022-12-18T03:16:21;59.40;;;27.37;;
3175;SDS011;1599;51.564;6.990;2022-12-18T03:18:53;65.33;;;33.37;;
3175;SDS011;1599;51.564;6.990;2022-12-18T03:21:32;60.33;;;30.13;;
3175;SDS011;1599;51.564;6.990;2022-12-18T03:24:04;56.80;;;27.40;;
3175;SDS011;1599;51.564;6.990;2022-12-18T03:26:33;56.70;;;29.40;;
3175;SDS011;1599;51.564;6.990;2022-12-18T03:29:06;64.97;;;29.30;;
3175;SDS011;1599;51.564;6.990;2022-12-18T03:31:55;78.87;;;29.30;;
3175;SDS011;1599;51.564;6.990;2022-12-18T03:34:29;53.73;;;28.23;;
3175;SDS011;1599;51.564;6.990;2022-12-18T03:36:59;59.87;;;29.50;;
3175;SDS011;1599;51.564;6.990;2022-12-18T03:39:26;62.90;;;32.20;;
3175;SDS011;1599;51.564;6.990;2022-12-18T03:41:54;59.23;;;28.90;;
3175;SDS011;1599;51.564;6.990;2022-12-18T03:50:15;58.97;;;30.47;;
3175;SDS011;1599;51.564;6.990;2022-12-18T03:53:04;63.73;;;28.27;;
3175;SDS011;1599;51.564;6.990;2022-12-18T03:55:53;69.70;;;28.37;;
3175;SDS011;1599;51.564;6.990;2022-12-18T03:58:21;63.33;;;29.07;;
3175;SDS011;1599;51.564;6.990;2022-12-18T04:00:50;57.60;;;28.33;;
3175;SDS011;1599;51.564;6.990;2022-12-18T04:03:20;65.27;;;31.50;;
3175;SDS011;1599;51.564;6.990;2022-12-18T04:05:48;63.67;;;28.57;;
3175;SDS011;1599;51.564;6.990;2022-12-18T04:08:19;61.93;;;29.53;;
3175;SDS011;1599;51.564;6.990;2022-12-18T04:10:47;63.53;;;29.37;;
3175;SDS011;1599;51.564;6.990;2022-12-18T04:13:13;56.00;;;25.87;;
3175;SDS011;1599;51.564;6.990;2022-12-18T04:15:53;54.80;;;29.10;;
3175;SDS011;1599;51.564;6.990;2022-12-18T04:18:19;55.53;;;27.60;;
3175;SDS011;1599;51.564;6.990;2022-12-18T04:20:44;52.47;;;27.47;;
3175;SDS011;1599;51.564;6.990;2022-12-18T04:23:10;59.57;;;26.80;;
3175;SDS011;1599;51.564;6.990;2022-12-18T04:25:36;49.87;;;26.50;;
3175;SDS011;1599;51.564;6.990;2022-12-18T04:28:02;54.73;;;25.97;;
3175;SDS011;1599;51.564;6.990;2022-12-18T04:30:28;48.00;;;24.40;;
3175;SDS011;1599;51.564;6.990;2022-12-18T04:32:53;49.27;;;24.47;;
3175;SDS011;1599;51.564;6.990;2022-12-18T04:35:19;53.27;;;26.10;;
3175;SDS011;1599;51.564;6.990;2022-12-18T04:37:45;53.53;;;23.47;;
3175;SDS011;1599;51.564;6.990;2022-12-18T04:40:10;46.00;;;23.50;;
3175;SDS011;1599;51.564;6.990;2022-12-18T04:42:38;50.40;;;25.80;;
3175;SDS011;1599;51.564;6.990;2022-12-18T04:45:05;49.07;;;23.43;;
3175;SDS011;1599;51.564;6.990;2022-12-18T04:47:32;47.97;;;22.93;;
3175;SDS011;1599;51.564;6.990;2022-12-18T04:49:58;47.10;;;23.83;;
3175;SDS011;1599;51.564;6.990;2022-12-18T04:52:23;45.40;;;23.90;;
3175;SDS011;1599;51.564;6.990;2022-12-18T04:54:49;48.27;;;21.97;;
3175;SDS011;1599;51.564;6.990;2022-12-18T04:57:15;43.10;;;21.53;;
3175;SDS011;1599;51.564;6.990;2022-12-18T04:59:42;44.07;;;21.30;;
3175;SDS011;1599;51.564;6.990;2022-12-18T05:02:09;41.13;;;20.63;;
3175;SDS011;1599;51.564;6.990;2022-12-18T05:04:35;41.80;;;21.70;;
3175;SDS011;1599;51.564;6.990;2022-12-18T05:07:00;48.33;;;22.77;;
3175;SDS011;1599;51.564;6.990;2022-12-18T05:09:26;41.40;;;21.33;;
3175;SDS011;1599;51.564;6.990;2022-12-18T05:11:52;43.63;;;22.90;;
3175;SDS011;1599;51.564;6.990;2022-12-18T05:14:18;43.67;;;21.87;;
3175;SDS011;1599;51.564;6.990;2022-12-18T05:16:44;38.40;;;19.03;;
3175;SDS011;1599;51.564;6.990;2022-12-18T05:19:10;39.17;;;19.60;;
3175;SDS011;1599;51.564;6.990;2022-12-18T05:21:35;46.93;;;22.37;;
3175;SDS011;1599;51.564;6.990;2022-12-18T05:24:01;45.80;;;22.67;;
3175;SDS011;1599;51.564;6.990;2022-12-18T05:26:27;40.70;;;19.07;;
3175;SDS011;1599;51.564;6.990;2022-12-18T05:28:56;40.47;;;19.27;;
3175;SDS011;1599;51.564;6.990;2022-12-18T05:31:21;39.70;;;21.20;;
3175;SDS011;1599;51.564;6.990;2022-12-18T05:33:47;38.73;;;19.37;;
3175;SDS011;1599;51.564;6.990;2022-12-18T05:36:14;37.33;;;18.73;;
3175;SDS011;1599;51.564;6.990;2022-12-18T05:38:40;32.03;;;17.10;;
3175;SDS011;1599;51.564;6.990;2022-12-18T05:41:06;40.27;;;18.27;;
3175;SDS011;1599;51.564;6.990;2022-12-18T05:43:34;38.63;;;18.53;;
3175;SDS011;1599;51.564;6.990;2022-12-18T05:46:10;37.20;;;18.10;;
3175;SDS011;1599;51.564;6.990;2022-12-18T05:48:39;32.63;;;17.53;;
3175;SDS011;1599;51.564;6.990;2022-12-18T05:51:09;35.97;;;16.07;;
3175;SDS011;1599;51.564;6.990;2022-12-18T05:53:40;33.87;;;16.87;;
3175;SDS011;1599;51.564;6.990;2022-12-18T05:56:07;32.47;;;17.73;;
3175;SDS011;1599;51.564;6.990;2022-12-18T05:58:37;36.63;;;18.03;;
3175;SDS011;1599;51.564;6.990;2022-12-18T06:01:07;40.50;;;18.60;;
3175;SDS011;1599;51.564;6.990;2022-12-18T06:03:39;42.07;;;17.60;;
3175;SDS011;1599;51.564;6.990;2022-12-18T06:06:19;35.67;;;17.83;;
3175;SDS011;1599;51.564;6.990;2022-12-18T06:08:48;32.20;;;17.33;;
3175;SDS011;1599;51.564;6.990;2022-12-18T06:11:17;33.07;;;16.63;;
3175;SDS011;1599;51.564;6.990;2022-12-18T06:13:52;30.63;;;17.67;;
3175;SDS011;1599;51.564;6.990;2022-12-18T06:16:19;35.30;;;16.67;;
3175;SDS011;1599;51.564;6.990;2022-12-18T06:18:45;30.97;;;16.53;;
3175;SDS011;1599;51.564;6.990;2022-12-18T06:21:11;31.17;;;17.40;;
3175;SDS011;1599;51.564;6.990;2022-12-18T06:23:37;26.77;;;14.03;;
3175;SDS011;1599;51.564;6.990;2022-12-18T06:26:07;28.90;;;15.83;;
3175;SDS011;1599;51.564;6.990;2022-12-18T06:28:35;68.97;;;29.03;;
3175;SDS011;1599;51.564;6.990;2022-12-18T06:31:02;37.57;;;15.70;;
3175;SDS011;1599;51.564;6.990;2022-12-18T06:33:29;36.07;;;16.67;;
3175;SDS011;1599;51.564;6.990;2022-12-18T06:35:59;30.63;;;15.60;;
3175;SDS011;1599;51.564;6.990;2022-12-18T06:38:35;32.60;;;15.60;;
3175;SDS011;1599;51.564;6.990;2022-12-18T06:41:06;33.27;;;15.73;;
3175;SDS011;1599;51.564;6.990;2022-12-18T06:43:37;32.70;;;15.47;;
3175;SDS011;1599;51.564;6.990;2022-12-18T06:46:03;31.90;;;16.37;;
3175;SDS011;1599;51.564;6.990;2022-12-18T06:48:30;29.40;;;14.90;;
3175;SDS011;1599;51.564;6.990;2022-12-18T06:50:56;23.17;;;13.47;;
3175;SDS011;1599;51.564;6.990;2022-12-18T06:53:22;29.53;;;14.67;;
3175;SDS011;1599;51.564;6.990;2022-12-18T06:55:47;23.83;;;13.07;;
3175;SDS011;1599;51.564;6.990;2022-12-18T06:58:13;36.10;;;17.17;;
3175;SDS011;1599;51.564;6.990;2022-12-18T07:00:40;44.33;;;17.00;;
3175;SDS011;1599;51.564;6.990;2022-12-18T07:03:06;35.30;;;15.73;;
3175;SDS011;1599;51.564;6.990;2022-12-18T07:05:31;29.80;;;14.77;;
3175;SDS011;1599;51.564;6.990;2022-12-18T07:07:57;27.33;;;15.17;;
3175;SDS011;1599;51.564;6.990;2022-12-18T07:10:23;34.40;;;16.50;;
3175;SDS011;1599;51.564;6.990;2022-12-18T07:12:49;25.97;;;14.47;;
3175;SDS011;1599;51.564;6.990;2022-12-18T07:15:15;34.90;;;15.10;;
3175;SDS011;1599;51.564;6.990;2022-12-18T07:17:40;38.07;;;16.83;;
3175;SDS011;1599;51.564;6.990;2022-12-18T07:20:06;29.13;;;14.20;;
3175;SDS011;1599;51.564;6.990;2022-12-18T07:22:33;37.67;;;16.93;;
3175;SDS011;1599;51.564;6.990;2022-12-18T07:24:58;34.47;;;17.07;;
3175;SDS011;1599;51.564;6.990;2022-12-18T07:27:24;32.77;;;16.10;;
3175;SDS011;1599;51.564;6.990;2022-12-18T07:29:50;36.10;;;16.07;;
3175;SDS011;1599;51.564;6.990;2022-12-18T07:32:16;30.87;;;15.73;;
3175;SDS011;1599;51.564;6.990;2022-12-18T07:34:41;24.80;;;14.87;;
3175;SDS011;1599;51.564;6.990;2022-12-18T07:37:07;33.40;;;15.10;;
3175;SDS011;1599;51.564;6.990;2022-12-18T07:39:33;34.30;;;14.70;;
3175;SDS011;1599;51.564;6.990;2022-12-18T07:41:59;32.00;;;17.53;;
3175;SDS011;1599;51.564;6.990;2022-12-18T07:44:43;30.27;;;14.47;;
3175;SDS011;1599;51.564;6.990;2022-12-18T07:47:08;24.53;;;13.93;;
3175;SDS011;1599;51.564;6.990;2022-12-18T07:49:34;34.63;;;14.57;;
3175;SDS011;1599;51.564;6.990;2022-12-18T07:52:00;37.07;;;16.23;;
3175;SDS011;1599;51.564;6.990;2022-12-18T07:54:26;32.60;;;16.53;;
3175;SDS011;1599;51.564;6.990;2022-12-18T07:56:52;26.97;;;15.77;;
3175;SDS011;1599;51.564;6.990;2022-12-18T07:59:18;35.43;;;17.80;;
3175;SDS011;1599;51.564;6.990;2022-12-18T08:01:44;35.90;;;17.97;;
3175;SDS011;1599;51.564;6.990;2022-12-18T08:04:10;28.10;;;15.03;;
3175;SDS011;1599;51.564;6.990;2022-12-18T08:06:35;35.70;;;16.90;;
3175;SDS011;1599;51.564;6.990;2022-12-18T08:09:01;33.63;;;16.03;;
3175;SDS011;1599;51.564;6.990;2022-12-18T08:11:28;32.90;;;17.27;;
3175;SDS011;1599;51.564;6.990;2022-12-18T08:13:54;34.53;;;15.30;;
3175;SDS011;1599;51.564;6.990;2022-12-18T08:16:21;35.60;;;17.77;;
3175;SDS011;1599;51.564;6.990;2022-12-18T08:18:47;33.30;;;17.47;;
3175;SDS011;1599;51.564;6.990;2022-12-18T08:21:21;33.43;;;16.13;;
3175;SDS011;1599;51.564;6.990;2022-12-18T08:23:51;29.50;;;15.70;;
3175;SDS011;1599;51.564;6.990;2022-12-18T08:26:19;30.80;;;17.87;;
3175;SDS011;1599;51.564;6.990;2022-12-18T08:28:45;27.80;;;15.30;;
3175;SDS011;1599;51.564;6.990;2022-12-18T08:31:11;31.73;;;15.40;;
3175;SDS011;1599;51.564;6.990;2022-12-18T08:33:38;36.27;;;17.30;;
3175;SDS011;1599;51.564;6.990;2022-12-18T08:36:04;30.53;;;16.13;;
3175;SDS011;1599;51.564;6.990;2022-12-18T08:38:31;36.30;;;15.83;;
3175;SDS011;1599;51.564;6.990;2022-12-18T08:40:58;32.47;;;16.73;;
3175;SDS011;1599;51.564;6.990;2022-12-18T08:43:29;25.13;;;14.10;;
3175;SDS011;1599;51.564;6.990;2022-12-18T08:46:14;25.17;;;14.40;;
3175;SDS011;1599;51.564;6.990;2022-12-18T08:48:41;32.13;;;14.00;;
3175;SDS011;1599;51.564;6.990;2022-12-18T08:51:07;36.33;;;16.90;;
3175;SDS011;1599;51.564;6.990;2022-12-18T08:53:34;25.87;;;14.27;;
3175;SDS011;1599;51.564;6.990;2022-12-18T08:56:01;28.50;;;15.00;;
3175;SDS011;1599;51.564;6.990;2022-12-18T08:58:27;28.40;;;15.50;;
3175;SDS011;1599;51.564;6.990;2022-12-18T09:00:54;25.77;;;14.80;;
3175;SDS011;1599;51.564;6.990;2022-12-18T09:03:25;24.57;;;14.10;;
3175;SDS011;1599;51.564;6.990;2022-12-18T09:05:51;26.43;;;14.60;;
3175;SDS011;1599;51.564;6.990;2022-12-18T09:08:16;23.60;;;14.97;;
3175;SDS011;1599;51.564;6.990;2022-12-18T09:10:46;34.73;;;15.87;;
3175;SDS011;1599;51.564;6.990;2022-12-18T09:13:14;27.60;;;13.60;;
3175;SDS011;1599;51.564;6.990;2022-12-18T09:15:42;29.87;;;15.57;;
3175;SDS011;1599;51.564;6.990;2022-12-18T09:18:18;25.67;;;12.90;;
3175;SDS011;1599;51.564;6.990;2022-12-18T09:20:45;19.80;;;12.40;;
3175;SDS011;1599;51.564;6.990;2022-12-18T09:23:11;24.20;;;13.60;;
3175;SDS011;1599;51.564;6.990;2022-12-18T09:25:38;22.10;;;12.03;;
3175;SDS011;1599;51.564;6.990;2022-12-18T09:28:05;21.17;;;12.77;;
3175;SDS011;1599;51.564;6.990;2022-12-18T09:30:37;25.50;;;13.10;;
3175;SDS011;1599;51.564;6.990;2022-12-18T09:33:05;25.33;;;14.33;;
3175;SDS011;1599;51.564;6.990;2022-12-18T09:35:30;27.47;;;16.50;;
3175;SDS011;1599;51.564;6.990;2022-12-18T09:37:56;32.73;;;16.70;;
3175;SDS011;1599;51.564;6.990;2022-12-18T09:40:23;29.57;;;15.40;;
3175;SDS011;1599;51.564;6.990;2022-12-18T09:43:02;30.93;;;14.90;;
3175;SDS011;1599;51.564;6.990;2022-12-18T09:45:31;24.30;;;15.83;;
3175;SDS011;1599;51.564;6.990;2022-12-18T09:48:35;23.70;;;13.97;;
3175;SDS011;1599;51.564;6.990;2022-12-18T09:51:11;28.97;;;16.00;;
3175;SDS011;1599;51.564;6.990;2022-12-18T09:54:10;30.90;;;15.87;;
3175;SDS011;1599;51.564;6.990;2022-12-18T09:56:38;22.73;;;13.73;;
3175;SDS011;1599;51.564;6.990;2022-12-18T09:59:14;26.73;;;14.77;;
3175;SDS011;1599;51.564;6.990;2022-12-18T10:01:46;23.53;;;13.73;;
3175;SDS011;1599;51.564;6.990;2022-12-18T10:04:12;24.10;;;14.33;;
3175;SDS011;1599;51.564;6.990;2022-12-18T10:06:42;22.43;;;13.03;;
3175;SDS011;1599;51.564;6.990;2022-12-18T10:09:34;22.03;;;12.60;;
3175;SDS011;1599;51.564;6.990;2022-12-18T10:12:16;20.47;;;12.80;;
3175;SDS011;1599;51.564;6.990;2022-12-18T10:15:23;24.77;;;14.30;;
3175;SDS011;1599;51.564;6.990;2022-12-18T10:20:49;23.20;;;13.83;;
3175;SDS011;1599;51.564;6.990;2022-12-18T10:23:32;23.33;;;13.70;;
3175;SDS011;1599;51.564;6.990;2022-12-18T10:26:09;25.37;;;15.07;;
3175;SDS011;1599;51.564;6.990;2022-12-18T10:28:42;27.60;;;18.13;;
3175;SDS011;1599;51.564;6.990;2022-12-18T10:31:16;34.10;;;21.50;;
3175;SDS011;1599;51.564;6.990;2022-12-18T10:33:44;28.07;;;18.83;;
3175;SDS011;1599;51.564;6.990;2022-12-18T10:36:11;32.47;;;16.43;;
3175;SDS011;1599;51.564;6.990;2022-12-18T10:38:37;26.50;;;16.70;;
3175;SDS011;1599;51.564;6.990;2022-12-18T10:41:04;29.70;;;17.50;;
3175;SDS011;1599;51.564;6.990;2022-12-18T10:43:43;28.67;;;17.30;;
3175;SDS011;1599;51.564;6.990;2022-12-18T10:51:26;23.00;;;15.20;;
3175;SDS011;1599;51.564;6.990;2022-12-18T10:54:45;24.20;;;15.03;;
3175;SDS011;1599;51.564;6.990;2022-12-18T10:56:48;29.00;;;17.33;;
3175;SDS011;1599;51.564;6.990;2022-12-18T10:59:15;28.93;;;17.07;;
3175;SDS011;1599;51.564;6.990;2022-12-18T11:01:53;23.37;;;15.03;;
3175;SDS011;1599;51.564;6.990;2022-12-18T11:04:24;22.23;;;15.47;;
3175;SDS011;1599;51.564;6.990;2022-12-18T11:09:33;24.00;;;13.33;;
3175;SDS011;1599;51.564;6.990;2022-12-18T11:12:25;30.93;;;17.53;;
3175;SDS011;1599;51.564;6.990;2022-12-18T11:14:53;29.63;;;17.50;;
3175;SDS011;1599;51.564;6.990;2022-12-18T11:17:28;21.70;;;14.77;;
3175;SDS011;1599;51.564;6.990;2022-12-18T11:20:06;27.23;;;17.27;;
3175;SDS011;1599;51.564;6.990;2022-12-18T11:23:05;26.87;;;16.17;;
3175;SDS011;1599;51.564;6.990;2022-12-18T11:25:50;23.50;;;15.87;;
3175;SDS011;1599;51.564;6.990;2022-12-18T11:31:11;30.13;;;17.53;;
3175;SDS011;1599;51.564;6.990;2022-12-18T11:36:45;17.53;;;11.80;;
3175;SDS011;1599;51.564;6.990;2022-12-18T11:42:17;21.03;;;12.23;;
3175;SDS011;1599;51.564;6.990;2022-12-18T11:44:59;16.40;;;10.47;;
3175;SDS011;1599;51.564;6.990;2022-12-18T11:47:55;16.80;;;11.10;;
3175;SDS011;1599;51.564;6.990;2022-12-18T11:53:01;17.83;;;11.50;;
3175;SDS011;1599;51.564;6.990;2022-12-18T11:55:39;32.30;;;18.40;;
3175;SDS011;1599;51.564;6.990;2022-12-18T12:01:40;27.00;;;16.53;;
3175;SDS011;1599;51.564;6.990;2022-12-18T12:07:19;21.00;;;12.07;;
3175;SDS011;1599;51.564;6.990;2022-12-18T12:13:11;22.37;;;15.30;;
3175;SDS011;1599;51.564;6.990;2022-12-18T12:16:04;18.70;;;12.33;;
3175;SDS011;1599;51.564;6.990;2022-12-18T12:32:59;29.43;;;19.10;;
3175;SDS011;1599;51.564;6.990;2022-12-18T12:38:41;20.30;;;12.83;;
3175;SDS011;1599;51.564;6.990;2022-12-18T12:41:14;20.13;;;13.17;;
3175;SDS011;1599;51.564;6.990;2022-12-18T12:44:07;19.20;;;11.80;;
3175;SDS011;1599;51.564;6.990;2022-12-18T12:46:49;16.97;;;11.87;;
3175;SDS011;1599;51.564;6.990;2022-12-18T12:49:21;17.30;;;11.80;;
3175;SDS011;1599;51.564;6.990;2022-12-18T12:51:58;19.97;;;11.53;;
3175;SDS011;1599;51.564;6.990;2022-12-18T12:54:37;18.30;;;12.97;;
3175;SDS011;1599;51.564;6.990;2022-12-18T12:57:09;16.63;;;11.50;;
3175;SDS011;1599;51.564;6.990;2022-12-18T13:08:31;26.17;;;13.97;;
3175;SDS011;1599;51.564;6.990;2022-12-18T13:12:02;29.03;;;15.17;;
3175;SDS011;1599;51.564;6.990;2022-12-18T13:14:38;27.53;;;15.40;;
3175;SDS011;1599;51.564;6.990;2022-12-18T13:22:44;27.13;;;16.27;;
3175;SDS011;1599;51.564;6.990;2022-12-18T13:28:13;23.73;;;13.53;;
3175;SDS011;1599;51.564;6.990;2022-12-18T13:30:58;25.50;;;14.63;;
3175;SDS011;1599;51.564;6.990;2022-12-18T13:36:16;32.13;;;15.60;;
3175;SDS011;1599;51.564;6.990;2022-12-18T13:41:43;24.43;;;15.60;;
3175;SDS011;1599;51.564;6.990;2022-12-18T13:46:58;24.50;;;15.67;;
3175;SDS011;1599;51.564;6.990;2022-12-18T13:49:39;24.43;;;14.40;;
3175;SDS011;1599;51.564;6.990;2022-12-18T13:52:28;21.00;;;14.10;;
3175;SDS011;1599;51.564;6.990;2022-12-18T13:55:00;29.00;;;17.27;;
3175;SDS011;1599;51.564;6.990;2022-12-18T13:57:33;24.90;;;15.33;;
3175;SDS011;1599;51.564;6.990;2022-12-18T14:02:59;25.53;;;14.53;;
3175;SDS011;1599;51.564;6.990;2022-12-18T14:05:30;22.67;;;13.73;;
3175;SDS011;1599;51.564;6.990;2022-12-18T14:08:21;24.67;;;15.23;;
3175;SDS011;1599;51.564;6.990;2022-12-18T14:10:47;22.80;;;14.30;;
3175;SDS011;1599;51.564;6.990;2022-12-18T14:13:29;25.10;;;12.17;;
3175;SDS011;1599;51.564;6.990;2022-12-18T14:16:06;20.00;;;13.47;;
3175;SDS011;1599;51.564;6.990;2022-12-18T14:18:42;19.63;;;13.47;;
3175;SDS011;1599;51.564;6.990;2022-12-18T14:21:39;21.07;;;14.17;;
3175;SDS011;1599;51.564;6.990;2022-12-18T14:26:33;25.83;;;14.63;;
3175;SDS011;1599;51.564;6.990;2022-12-18T14:29:00;26.00;;;13.97;;
3175;SDS011;1599;51.564;6.990;2022-12-18T14:32:04;25.83;;;14.33;;
3175;SDS011;1599;51.564;6.990;2022-12-18T14:35:17;22.40;;;13.90;;
3175;SDS011;1599;51.564;6.990;2022-12-18T14:38:18;24.97;;;14.47;;
3175;SDS011;1599;51.564;6.990;2022-12-18T14:43:37;26.60;;;13.60;;
3175;SDS011;1599;51.564;6.990;2022-12-18T14:46:05;20.83;;;12.50;;
3175;SDS011;1599;51.564;6.990;2022-12-18T14:54:28;16.67;;;9.40;;
3175;SDS011;1599;51.564;6.990;2022-12-18T14:59:27;22.00;;;10.70;;
3175;SDS011;1599;51.564;6.990;2022-12-18T15:07:04;15.17;;;9.50;;
3175;SDS011;1599;51.564;6.990;2022-12-18T15:09:40;17.07;;;10.33;;
3175;SDS011;1599;51.564;6.990;2022-12-18T15:20:54;15.60;;;9.47;;
3175;SDS011;1599;51.564;6.990;2022-12-18T15:23:28;19.90;;;11.20;;
3175;SDS011;1599;51.564;6.990;2022-12-18T15:26:18;18.63;;;10.13;;
3175;SDS011;1599;51.564;6.990;2022-12-18T15:28:53;19.33;;;11.70;;
3175;SDS011;1599;51.564;6.990;2022-12-18T15:34:13;21.03;;;11.40;;
3175;SDS011;1599;51.564;6.990;2022-12-18T15:36:47;19.07;;;10.70;;
3175;SDS011;1599;51.564;6.990;2022-12-18T15:39:15;17.63;;;11.17;;
3175;SDS011;1599;51.564;6.990;2022-12-18T15:41:41;22.00;;;12.40;;
3175;SDS011;1599;51.564;6.990;2022-12-18T15:44:27;35.83;;;10.70;;
3175;SDS011;1599;51.564;6.990;2022-12-18T15:46:53;19.90;;;11.30;;
3175;SDS011;1599;51.564;6.990;2022-12-18T15:49:20;18.30;;;11.07;;
3175;SDS011;1599;51.564;6.990;2022-12-18T15:51:46;19.17;;;10.57;;
3175;SDS011;1599;51.564;6.990;2022-12-18T15:54:21;17.27;;;9.70;;
3175;SDS011;1599;51.564;6.990;2022-12-18T15:57:10;17.70;;;9.80;;
3175;SDS011;1599;51.564;6.990;2022-12-18T15:59:54;17.37;;;10.67;;
3175;SDS011;1599;51.564;6.990;2022-12-18T16:02:22;19.43;;;10.60;;
3175;SDS011;1599;51.564;6.990;2022-12-18T16:04:50;19.80;;;11.07;;
3175;SDS011;1599;51.564;6.990;2022-12-18T16:07:17;21.40;;;10.50;;
3175;SDS011;1599;51.564;6.990;2022-12-18T16:09:43;17.60;;;10.73;;
3175;SDS011;1599;51.564;6.990;2022-12-18T16:12:21;18.03;;;11.20;;
3175;SDS011;1599;51.564;6.990;2022-12-18T16:14:49;23.40;;;11.37;;
3175;SDS011;1599;51.564;6.990;2022-12-18T16:17:14;18.13;;;11.90;;
3175;SDS011;1599;51.564;6.990;2022-12-18T16:30:50;19.53;;;11.70;;
3175;SDS011;1599;51.564;6.990;2022-12-18T16:49:19;22.07;;;14.97;;
3175;SDS011;1599;51.564;6.990;2022-12-18T16:59:48;29.17;;;14.40;;
3175;SDS011;1599;51.564;6.990;2022-12-18T17:02:18;24.77;;;14.73;;
3175;SDS011;1599;51.564;6.990;2022-12-18T17:04:51;39.13;;;19.80;;
3175;SDS011;1599;51.564;6.990;2022-12-18T17:07:19;35.57;;;18.30;;
3175;SDS011;1599;51.564;6.990;2022-12-18T17:09:45;30.37;;;16.53;;
3175;SDS011;1599;51.564;6.990;2022-12-18T17:12:11;33.27;;;17.47;;
3175;SDS011;1599;51.564;6.990;2022-12-18T17:14:37;31.40;;;17.30;;
3175;SDS011;1599;51.564;6.990;2022-12-18T17:17:03;31.13;;;18.40;;
3175;SDS011;1599;51.564;6.990;2022-12-18T17:19:29;32.27;;;17.03;;
3175;SDS011;1599;51.564;6.990;2022-12-18T17:21:55;30.93;;;17.77;;
3175;SDS011;1599;51.564;6.990;2022-12-18T17:24:20;24.27;;;15.30;;
3175;SDS011;1599;51.564;6.990;2022-12-18T17:26:46;24.80;;;15.47;;
3175;SDS011;1599;51.564;6.990;2022-12-18T17:29:13;29.13;;;15.33;;
3175;SDS011;1599;51.564;6.990;2022-12-18T17:31:42;23.90;;;14.53;;
3175;SDS011;1599;51.564;6.990;2022-12-18T17:34:09;27.00;;;13.10;;
3175;SDS011;1599;51.564;6.990;2022-12-18T17:36:36;23.87;;;13.43;;
3175;SDS011;1599;51.564;6.990;2022-12-18T17:39:02;21.47;;;12.30;;
3175;SDS011;1599;51.564;6.990;2022-12-18T17:41:29;25.70;;;12.53;;
3175;SDS011;1599;51.564;6.990;2022-12-18T17:43:56;24.83;;;13.87;;
3175;SDS011;1599;51.564;6.990;2022-12-18T17:46:28;25.00;;;13.30;;
3175;SDS011;1599;51.564;6.990;2022-12-18T17:48:56;23.97;;;12.83;;
3175;SDS011;1599;51.564;6.990;2022-12-18T17:51:24;24.60;;;13.60;;
3175;SDS011;1599;51.564;6.990;2022-12-18T17:53:50;27.17;;;14.40;;
3175;SDS011;1599;51.564;6.990;2022-12-18T17:56:22;20.57;;;11.77;;
3175;SDS011;1599;51.564;6.990;2022-12-18T17:58:54;22.90;;;12.63;;
3175;SDS011;1599;51.564;6.990;2022-12-18T18:01:22;25.97;;;14.33;;
3175;SDS011;1599;51.564;6.990;2022-12-18T18:03:52;25.83;;;13.07;;
3175;SDS011;1599;51.564;6.990;2022-12-18T18:06:20;24.17;;;12.43;;